createdAt,value
2023-02-11T00:00:46.329Z,97810.00
2023-02-11T00:01:45.392Z,97810.00
2023-02-11T00:02:48.006Z,97812.00
2023-02-11T00:03:45.490Z,97812.00
2023-02-11T00:04:46.401Z,97812.00
2023-02-11T00:05:46.405Z,97812.00
2023-02-11T00:06:45.391Z,97808.00
2023-02-11T00:07:45.394Z,97810.00
2023-02-11T00:08:46.368Z,97808.00
2023-02-11T00:09:45.347Z,97808.00
2023-02-11T00:10:46.398Z,97806.00
2023-02-11T00:11:46.334Z,97806.00
2023-02-11T00:12:46.349Z,97806.00
2023-02-11T00:13:46.327Z,97806.00
2023-02-11T00:14:45.330Z,97806.00
2023-02-11T00:15:46.306Z,97808.00
2023-02-11T00:16:46.391Z,97808.00
2023-02-11T00:17:45.302Z,97810.00
2023-02-11T00:18:45.272Z,97814.00
2023-02-11T00:19:45.283Z,97812.00
2023-02-11T00:20:46.268Z,97814.00
2023-02-11T00:21:46.264Z,97814.00
2023-02-11T00:22:46.252Z,97812.00
2023-02-11T00:23:46.249Z,97812.00
2023-02-11T00:24:46.249Z,97816.00
2023-02-11T00:25:46.250Z,97818.00
2023-02-11T00:26:46.252Z,97814.00
2023-02-11T00:27:46.214Z,97818.00
2023-02-11T00:28:45.197Z,97816.00
2023-02-11T00:29:45.197Z,97816.00
2023-02-11T00:30:45.287Z,97814.00
2023-02-11T00:31:46.385Z,97814.00
2023-02-11T00:32:46.183Z,97812.00
2023-02-11T00:33:45.176Z,97812.00
2023-02-11T00:34:45.168Z,97812.00
2023-02-11T00:35:46.144Z,97812.00
2023-02-11T00:36:46.137Z,97816.00
2023-02-11T00:37:46.140Z,97820.00
2023-02-11T00:38:46.148Z,97820.00
2023-02-11T00:39:46.118Z,97820.00
2023-02-11T00:40:45.098Z,97820.00
2023-02-11T00:41:45.093Z,97822.00
2023-02-11T00:42:46.135Z,97822.00
2023-02-11T00:43:45.079Z,97820.00
2023-02-11T00:44:46.084Z,97820.00
2023-02-11T00:45:46.170Z,97818.00
2023-02-11T00:46:45.143Z,97818.00
2023-02-11T00:47:46.083Z,97818.00
2023-02-11T00:48:46.092Z,97820.00
2023-02-11T00:49:46.115Z,97820.00
2023-02-11T00:50:45.114Z,97822.00
2023-02-11T00:51:46.148Z,97820.00
2023-02-11T00:52:46.157Z,97822.00
2023-02-11T00:55:46.225Z,97818.00
2023-02-11T00:57:45.255Z,97816.00
2023-02-11T00:59:46.299Z,97814.00
2023-02-11T01:00:46.322Z,97816.00
2023-02-11T01:04:45.345Z,97814.00
2023-02-11T01:05:46.352Z,97812.00
2023-02-11T01:06:45.359Z,97810.00
2023-02-11T01:12:45.341Z,97810.00
2023-02-11T01:13:45.342Z,97808.00
2023-02-11T01:17:45.338Z,97806.00
2023-02-11T01:19:45.322Z,97804.00
2023-02-11T01:20:45.301Z,97804.00
2023-02-11T01:21:45.313Z,97806.00
2023-02-11T01:22:46.304Z,97808.00
2023-02-11T01:23:45.318Z,97806.00
2023-02-11T01:25:45.307Z,97804.00
2023-02-11T01:26:45.285Z,97806.00
2023-02-11T01:28:45.281Z,97806.00
2023-02-11T01:30:45.344Z,97804.00
2023-02-11T01:31:45.353Z,97801.00
2023-02-11T01:32:45.286Z,97801.00
2023-02-11T01:33:46.297Z,97801.00
2023-02-11T01:34:45.286Z,97801.00
2023-02-11T01:36:45.302Z,97801.00
2023-02-11T01:37:45.290Z,97801.00
2023-02-11T01:39:45.269Z,97799.00
2023-02-11T01:40:45.264Z,97801.00
2023-02-11T01:41:45.270Z,97802.00
2023-02-11T01:42:46.271Z,97799.00
2023-02-11T01:44:45.242Z,97799.00
2023-02-11T01:45:46.307Z,97797.00
2023-02-11T01:46:45.373Z,97797.00
2023-02-11T01:48:45.283Z,97793.00
2023-02-11T01:49:45.293Z,97795.00
2023-02-11T01:50:46.251Z,97797.00
2023-02-11T01:52:46.258Z,97795.00
2023-02-11T01:54:46.256Z,97797.00
2023-02-11T01:56:46.269Z,97795.00
2023-02-11T01:57:46.266Z,97795.00
2023-02-11T01:58:46.257Z,97793.00
2023-02-11T01:59:45.270Z,97789.00
2023-02-11T02:00:46.285Z,97789.00
2023-02-11T02:01:46.302Z,97785.00
2023-02-11T02:02:45.321Z,97783.00
2023-02-11T02:08:46.363Z,97777.00
2023-02-11T02:09:45.380Z,97777.00
2023-02-11T02:10:46.386Z,97781.00
2023-02-11T02:11:45.393Z,97783.00
2023-02-11T02:12:46.389Z,97783.00
2023-02-11T02:13:46.414Z,97783.00
2023-02-11T02:16:46.452Z,97779.00
2023-02-11T02:18:46.461Z,97777.00
2023-02-11T02:23:45.488Z,97779.00
2023-02-11T02:25:45.509Z,97777.00
2023-02-11T02:43:45.718Z,97763.00
2023-02-11T02:49:45.781Z,97757.00
2023-02-11T02:51:45.822Z,97754.00
2023-02-11T02:59:45.965Z,97750.00
2023-02-11T03:09:46.092Z,97736.00
2023-02-11T03:10:47.105Z,97736.00
2023-02-11T03:12:47.123Z,97738.00
2023-02-11T03:18:46.285Z,97738.00
2023-02-11T03:22:46.334Z,97740.00
2023-02-11T03:26:46.353Z,97740.00
2023-02-11T03:30:46.502Z,97750.00
2023-02-11T03:32:46.498Z,97750.00
2023-02-11T03:37:46.619Z,97734.00
2023-02-11T03:42:46.701Z,97728.00
2023-02-11T03:46:46.775Z,97726.00
2023-02-11T03:47:46.805Z,97724.00
2023-02-11T03:49:46.845Z,97724.00
2023-02-11T03:53:46.938Z,97730.00
2023-02-11T03:54:47.003Z,97732.00
2023-02-11T03:55:47.001Z,97732.00
2023-02-11T03:57:47.053Z,97734.00
2023-02-11T04:10:47.387Z,97738.00
2023-02-11T04:11:47.386Z,97734.00
2023-02-11T04:14:47.460Z,97734.00
2023-02-11T04:21:47.622Z,97730.00
2023-02-11T04:22:47.643Z,97730.00
2023-02-11T04:28:47.793Z,97734.00
2023-02-11T04:31:47.899Z,97734.00
2023-02-11T04:37:48.038Z,97736.00
2023-02-11T04:41:48.111Z,97750.00
2023-02-11T04:42:48.210Z,97750.00
2023-02-11T04:48:48.330Z,97750.00
2023-02-11T04:50:48.430Z,97750.00
2023-02-11T04:51:49.641Z,97748.00
2023-02-11T04:52:48.458Z,97750.00
2023-02-11T04:53:48.469Z,97754.00
2023-02-11T04:55:48.806Z,97752.00
2023-02-11T04:57:48.590Z,97750.00
2023-02-11T04:58:48.618Z,97736.00
2023-02-11T04:59:48.623Z,97740.00
2023-02-11T05:00:48.687Z,97734.00
2023-02-11T05:08:48.877Z,97732.00
2023-02-11T05:11:48.998Z,97730.00
2023-02-11T05:14:49.117Z,97740.00
2023-02-11T05:15:49.564Z,97740.00
2023-02-11T05:19:49.273Z,97754.00
2023-02-11T05:29:49.629Z,97752.00
2023-02-11T05:33:49.768Z,97748.00
2023-02-11T05:35:50.214Z,97752.00
2023-02-11T05:37:49.884Z,97738.00
2023-02-11T06:13:51.175Z,97738.00
2023-02-11T06:22:51.521Z,97755.00
2023-02-11T06:25:52.055Z,97748.00
2023-02-11T07:09:53.514Z,97740.00
2023-02-11T07:12:57.034Z,97740.00
2023-02-11T07:13:54.637Z,97740.00
2023-02-11T07:15:54.686Z,97738.00
2023-02-11T07:27:54.645Z,97722.00
2023-02-11T07:28:54.693Z,97722.00
2023-02-11T07:29:54.721Z,97720.00
2023-02-11T07:30:54.820Z,97718.00
2023-02-11T07:31:54.923Z,97722.00
2023-02-11T07:32:54.023Z,97722.00
2023-02-11T07:33:54.944Z,97724.00
2023-02-11T07:34:54.101Z,97728.00
2023-02-11T07:35:54.037Z,97732.00
2023-02-11T07:36:55.073Z,97734.00
2023-02-11T07:37:55.125Z,97740.00
2023-02-11T07:38:55.200Z,97738.00
2023-02-11T07:39:54.235Z,97738.00
2023-02-11T07:40:55.314Z,97740.00
2023-02-11T07:41:54.301Z,97736.00
2023-02-11T07:42:55.405Z,97734.00
2023-02-11T07:43:55.408Z,97730.00
2023-02-11T07:46:55.587Z,97720.00
2023-02-11T07:47:55.610Z,97724.00
2023-02-11T07:50:55.770Z,97722.00
2023-02-11T07:52:54.852Z,97720.00
2023-02-11T07:53:54.922Z,97718.00
2023-02-11T07:54:55.009Z,97716.00
2023-02-11T07:56:56.068Z,97716.00
2023-02-11T07:57:55.121Z,97718.00
2023-02-11T07:58:56.179Z,97716.00
2023-02-11T07:59:56.230Z,97714.00
2023-02-11T08:00:55.327Z,97712.00
2023-02-11T08:01:56.458Z,97718.00
2023-02-11T08:02:56.369Z,97712.00
2023-02-11T08:03:55.463Z,97714.00
2023-02-11T08:04:55.474Z,97708.00
2023-02-11T08:05:56.520Z,97712.00
2023-02-11T08:06:58.584Z,97714.00
2023-02-11T08:08:55.575Z,97714.00
2023-02-11T08:09:56.563Z,97714.00
2023-02-11T08:10:55.578Z,97718.00
2023-02-11T08:11:56.538Z,97716.00
2023-02-11T08:12:56.541Z,97718.00
2023-02-11T08:13:56.541Z,97722.00
2023-02-11T08:15:55.504Z,97726.00
2023-02-11T08:16:56.501Z,97730.00
2023-02-11T08:17:56.499Z,97730.00
2023-02-11T08:18:56.508Z,97734.00
2023-02-11T08:19:55.533Z,97734.00
2023-02-11T08:20:56.476Z,97738.00
2023-02-11T08:21:55.454Z,97734.00
2023-02-11T08:22:55.460Z,97730.00
2023-02-11T08:23:55.442Z,97728.00
2023-02-11T08:24:55.455Z,97724.00
2023-02-11T08:25:55.459Z,97722.00
2023-02-11T08:26:56.451Z,97722.00
2023-02-11T08:27:56.470Z,97722.00
2023-02-11T08:28:55.419Z,97726.00
2023-02-11T08:29:56.410Z,97730.00
2023-02-11T08:30:56.455Z,97732.00
2023-02-11T08:31:56.435Z,97732.00
2023-02-11T08:32:56.379Z,97728.00
2023-02-11T08:35:14.778Z,97726.00
2023-02-11T08:36:15.653Z,97722.00
2023-02-11T08:37:15.588Z,97718.00
2023-02-11T08:38:15.623Z,97716.00
2023-02-11T08:39:20.037Z,97714.00
2023-02-11T08:40:15.592Z,97714.00
2023-02-11T08:41:15.640Z,97714.00
2023-02-11T08:42:15.677Z,97718.00
2023-02-11T08:43:15.534Z,97718.00
2023-02-11T08:44:15.591Z,97716.00
2023-02-11T08:45:14.650Z,97718.00
2023-02-11T08:46:15.591Z,97716.00
2023-02-11T08:47:14.499Z,97718.00
2023-02-11T08:48:14.492Z,97724.00
2023-02-11T08:49:15.573Z,97728.00
2023-02-11T08:50:15.615Z,97728.00
2023-02-11T08:51:14.653Z,97726.00
2023-02-11T08:52:14.678Z,97726.00
2023-02-11T08:53:14.718Z,97726.00
2023-02-11T08:54:15.798Z,97722.00
2023-02-11T08:55:15.826Z,97724.00
2023-02-11T08:56:15.948Z,97724.00
2023-02-11T08:57:15.951Z,97732.00
2023-02-11T08:58:18.160Z,97734.00
2023-02-11T08:59:15.970Z,97736.00
2023-02-11T09:00:15.973Z,97748.00
2023-02-11T09:01:16.383Z,97750.00
2023-02-11T09:02:16.013Z,97750.00
2023-02-11T09:03:15.928Z,97750.00
2023-02-11T09:04:15.936Z,97750.00
2023-02-11T09:05:15.952Z,97736.00
2023-02-11T09:06:15.920Z,97730.00
2023-02-11T09:07:15.916Z,97726.00
2023-02-11T09:08:15.880Z,97726.00
2023-02-11T09:09:14.893Z,97728.00
2023-02-11T09:10:14.870Z,97728.00
2023-02-11T09:11:15.917Z,97726.00
2023-02-11T09:12:15.851Z,97722.00
2023-02-11T09:13:15.872Z,97718.00
2023-02-11T09:14:15.882Z,97714.00
2023-02-11T09:15:15.838Z,97714.00
2023-02-11T09:16:15.844Z,97710.00
2023-02-11T09:17:15.803Z,97708.00
2023-02-11T09:18:15.810Z,97706.00
2023-02-11T09:19:14.826Z,97704.00
2023-02-11T09:20:15.914Z,97704.00
2023-02-11T09:21:15.940Z,97704.00
2023-02-11T09:22:16.022Z,97708.00
2023-02-11T09:23:17.591Z,97708.00
2023-02-11T09:24:16.014Z,97712.00
2023-02-11T09:25:15.998Z,97714.00
2023-02-11T09:26:15.993Z,97716.00
2023-02-11T09:27:14.973Z,97714.00
2023-02-11T09:28:16.035Z,97714.00
2023-02-11T09:29:15.014Z,97716.00
2023-02-11T09:30:16.002Z,97714.00
2023-02-11T09:31:16.114Z,97720.00
2023-02-11T09:32:16.032Z,97720.00
2023-02-11T09:33:15.914Z,97714.00
2023-02-11T09:34:15.949Z,97714.00
2023-02-11T09:35:16.017Z,97714.00
2023-02-11T09:36:15.909Z,97718.00
2023-02-11T09:37:14.973Z,97718.00
2023-02-11T09:38:14.886Z,97718.00
2023-02-11T09:39:15.880Z,97720.00
2023-02-11T09:40:14.879Z,97718.00
2023-02-11T09:41:15.863Z,97714.00
2023-02-11T09:42:14.864Z,97712.00
2023-02-11T09:43:15.854Z,97710.00
2023-02-11T09:44:15.860Z,97708.00
2023-02-11T09:45:14.841Z,97704.00
2023-02-11T09:46:15.922Z,97704.00
2023-02-11T09:47:15.814Z,97702.00
2023-02-11T09:48:14.836Z,97700.00
2023-02-11T09:49:14.813Z,97700.00
2023-02-11T09:50:15.875Z,97700.00
2023-02-11T09:51:15.826Z,97696.00
2023-02-11T09:52:15.798Z,97694.00
2023-02-11T09:53:14.827Z,97691.00
2023-02-11T09:54:15.916Z,97687.00
2023-02-11T09:55:15.927Z,97687.00
2023-02-11T09:56:14.976Z,97691.00
2023-02-11T09:57:27.948Z,97693.00
2023-02-11T09:58:16.024Z,97694.00
2023-02-11T09:59:16.024Z,97691.00
2023-02-11T10:00:16.047Z,97691.00
2023-02-11T10:01:16.056Z,97689.00
2023-02-11T10:02:15.999Z,97687.00
2023-02-11T10:03:15.993Z,97685.00
2023-02-11T10:04:16.042Z,97685.00
2023-02-11T10:05:16.005Z,97681.00
2023-02-11T10:06:15.971Z,97679.00
2023-02-11T10:07:15.921Z,97677.00
2023-02-11T10:08:17.117Z,97673.00
2023-02-11T10:09:15.931Z,97673.00
2023-02-11T10:10:16.013Z,97673.00
2023-02-11T10:11:30.575Z,97673.00
2023-02-11T10:12:16.030Z,97673.00
2023-02-11T10:13:16.013Z,97671.00
2023-02-11T10:14:16.014Z,97669.00
2023-02-11T10:15:15.991Z,97669.00
2023-02-11T10:16:16.068Z,97665.00
2023-02-11T10:17:14.971Z,97667.00
2023-02-11T10:18:16.013Z,97667.00
2023-02-11T10:19:15.992Z,97663.00
2023-02-11T10:20:16.943Z,97661.00
2023-02-11T10:21:14.958Z,97665.00
2023-02-11T10:22:14.958Z,97663.00
2023-02-11T10:23:15.937Z,97667.00
2023-02-11T10:24:14.922Z,97665.00
2023-02-11T10:25:15.932Z,97663.00
2023-02-11T10:26:15.925Z,97661.00
2023-02-11T10:27:15.946Z,97661.00
2023-02-11T10:28:16.167Z,97661.00
2023-02-11T10:29:16.031Z,97663.00
2023-02-11T10:30:16.087Z,97665.00
2023-02-11T10:31:16.281Z,97667.00
2023-02-11T10:32:16.136Z,97669.00
2023-02-11T10:33:16.199Z,97667.00
2023-02-11T10:34:16.229Z,97671.00
2023-02-11T10:35:16.272Z,97671.00
2023-02-11T10:36:16.288Z,97673.00
2023-02-11T10:37:16.304Z,97675.00
2023-02-11T10:38:16.357Z,97673.00
2023-02-11T10:39:15.405Z,97673.00
2023-02-11T10:40:16.432Z,97669.00
2023-02-11T10:41:16.428Z,97665.00
2023-02-11T10:42:15.473Z,97665.00
2023-02-11T10:43:16.523Z,97661.00
2023-02-11T10:44:16.541Z,97655.00
2023-02-11T10:45:16.569Z,97655.00
2023-02-11T10:46:16.642Z,97657.00
2023-02-11T10:47:16.623Z,97659.00
2023-02-11T10:48:16.676Z,97659.00
2023-02-11T10:49:15.710Z,97657.00
2023-02-11T10:50:16.778Z,97657.00
2023-02-11T10:51:16.806Z,97655.00
2023-02-11T10:52:16.808Z,97657.00
2023-02-11T10:53:16.845Z,97655.00
2023-02-11T10:54:15.885Z,97654.00
2023-02-11T10:55:16.927Z,97649.00
2023-02-11T10:56:15.962Z,97649.00
2023-02-11T10:57:17.005Z,97644.00
2023-02-11T10:58:17.093Z,97642.00
2023-02-11T10:59:19.059Z,97642.00
2023-02-11T11:00:16.084Z,97642.00
2023-02-11T11:01:24.253Z,97644.00
2023-02-11T11:02:17.056Z,97638.00
2023-02-11T11:03:17.040Z,97636.00
2023-02-11T11:04:17.069Z,97636.00
2023-02-11T11:05:17.076Z,97634.00
2023-02-11T11:06:17.035Z,97632.00
2023-02-11T11:07:16.029Z,97634.00
2023-02-11T11:08:17.054Z,97630.00
2023-02-11T11:09:16.004Z,97628.00
2023-02-11T11:10:17.063Z,97626.00
2023-02-11T11:11:16.982Z,97622.00
2023-02-11T11:12:15.974Z,97616.00
2023-02-11T11:13:15.957Z,97612.00
2023-02-11T11:14:16.953Z,97614.00
2023-02-11T11:15:16.971Z,97614.00
2023-02-11T11:16:17.042Z,97612.00
2023-02-11T11:17:16.926Z,97612.00
2023-02-11T11:18:22.577Z,97612.00
2023-02-11T11:19:16.941Z,97610.00
2023-02-11T11:20:16.971Z,97608.00
2023-02-11T11:21:16.904Z,97607.00
2023-02-11T11:22:16.916Z,97605.00
2023-02-11T11:23:16.926Z,97603.00
2023-02-11T11:24:16.925Z,97605.00
2023-02-11T11:25:16.893Z,97601.00
2023-02-11T11:26:16.881Z,97601.00
2023-02-11T11:27:15.845Z,97599.00
2023-02-11T11:28:16.898Z,97593.00
2023-02-11T11:29:16.840Z,97591.00
2023-02-11T11:30:15.915Z,97585.00
2023-02-11T11:31:16.968Z,97587.00
2023-02-11T11:32:18.903Z,97585.00
2023-02-11T11:33:16.828Z,97581.00
2023-02-11T11:34:16.981Z,97581.00
2023-02-11T11:35:16.804Z,97585.00
2023-02-11T11:36:16.777Z,97587.00
2023-02-11T11:37:16.769Z,97583.00
2023-02-11T11:38:16.777Z,97583.00
2023-02-11T11:39:16.752Z,97581.00
2023-02-11T11:40:16.903Z,97581.00
2023-02-11T11:41:15.732Z,97583.00
2023-02-11T11:42:16.740Z,97581.00
2023-02-11T11:43:16.857Z,97583.00
2023-02-11T11:44:15.752Z,97577.00
2023-02-11T11:45:16.733Z,97579.00
2023-02-11T11:46:16.734Z,97577.00
2023-02-11T11:47:15.706Z,97573.00
2023-02-11T11:48:16.670Z,97571.00
2023-02-11T11:49:16.676Z,97571.00
2023-02-11T11:50:17.707Z,97573.00
2023-02-11T11:51:15.670Z,97575.00
2023-02-11T11:52:16.666Z,97579.00
2023-02-11T11:53:16.649Z,97581.00
2023-02-11T11:54:16.647Z,97581.00
2023-02-11T11:55:15.634Z,97577.00
2023-02-11T11:56:16.657Z,97579.00
2023-02-11T11:57:16.630Z,97577.00
2023-02-11T11:58:15.612Z,97575.00
2023-02-11T11:59:15.613Z,97573.00
2023-02-11T12:00:15.681Z,97569.00
2023-02-11T12:01:15.571Z,97568.00
2023-02-11T12:02:16.654Z,97569.00
2023-02-11T12:03:16.626Z,97571.00
2023-02-11T12:04:16.568Z,97571.00
2023-02-11T12:05:16.563Z,97573.00
2023-02-11T12:06:16.546Z,97575.00
2023-02-11T12:07:16.552Z,97575.00
2023-02-11T12:08:16.516Z,97575.00
2023-02-11T12:09:16.508Z,97571.00
2023-02-11T12:10:16.540Z,97571.00
2023-02-11T12:11:16.534Z,97571.00
2023-02-11T12:12:16.491Z,97571.00
2023-02-11T12:13:15.503Z,97573.00
2023-02-11T12:14:16.477Z,97571.00
2023-02-11T12:15:16.497Z,97569.00
2023-02-11T12:16:16.518Z,97566.00
2023-02-11T12:17:15.450Z,97560.00
2023-02-11T12:18:16.482Z,97560.00
2023-02-11T12:19:15.449Z,97558.00
2023-02-11T12:20:16.432Z,97556.00
2023-02-11T12:21:16.451Z,97550.00
2023-02-11T12:22:16.460Z,97546.00
2023-02-11T12:23:16.410Z,97544.00
2023-02-11T12:24:17.502Z,97542.00
2023-02-11T12:25:15.392Z,97540.00
2023-02-11T12:26:16.442Z,97538.00
2023-02-11T12:27:16.398Z,97536.00
2023-02-11T12:28:16.415Z,97538.00
2023-02-11T12:29:16.366Z,97538.00
2023-02-11T12:30:16.460Z,97540.00
2023-02-11T12:31:16.552Z,97540.00
2023-02-11T12:32:16.470Z,97536.00
2023-02-11T12:33:16.468Z,97536.00
2023-02-11T12:34:16.491Z,97532.00
2023-02-11T12:35:16.532Z,97532.00
2023-02-11T12:36:15.619Z,97532.00
2023-02-11T12:37:16.605Z,97528.00
2023-02-11T12:38:16.620Z,97530.00
2023-02-11T12:39:16.645Z,97528.00
2023-02-11T12:40:16.713Z,97530.00
2023-02-11T12:41:15.703Z,97526.00
2023-02-11T12:42:16.756Z,97524.00
2023-02-11T12:43:15.776Z,97521.00
2023-02-11T12:44:16.778Z,97517.00
2023-02-11T12:45:16.826Z,97517.00
2023-02-11T12:46:16.986Z,97515.00
2023-02-11T12:47:16.878Z,97513.00
2023-02-11T12:48:16.903Z,97509.00
2023-02-11T12:49:16.935Z,97507.00
2023-02-11T12:50:15.970Z,97509.00
2023-02-11T12:51:17.014Z,97509.00
2023-02-11T12:52:17.031Z,97509.00
2023-02-11T12:53:17.029Z,97507.00
2023-02-11T12:54:17.085Z,97505.00
2023-02-11T12:55:17.098Z,97503.00
2023-02-11T12:56:17.137Z,97505.00
2023-02-11T12:57:16.181Z,97503.00
2023-02-11T12:58:17.216Z,97501.00
2023-02-11T12:59:17.183Z,97499.00
2023-02-11T13:00:17.236Z,97497.00
2023-02-11T13:01:17.360Z,97495.00
2023-02-11T13:02:17.408Z,97495.00
2023-02-11T13:03:17.281Z,97495.00
2023-02-11T13:04:17.319Z,97493.00
2023-02-11T13:05:17.340Z,97493.00
2023-02-11T13:06:17.365Z,97483.00
2023-02-11T13:07:17.396Z,97481.00
2023-02-11T13:08:17.461Z,97479.00
2023-02-11T13:09:17.442Z,97479.00
2023-02-11T13:10:17.499Z,97481.00
2023-02-11T13:11:17.527Z,97479.00
2023-02-11T13:12:16.540Z,97477.00
2023-02-11T13:13:17.646Z,97477.00
2023-02-11T13:14:17.715Z,97473.00
2023-02-11T13:15:17.633Z,97473.00
2023-02-11T13:16:17.664Z,97471.00
2023-02-11T13:17:17.669Z,97469.00
2023-02-11T13:18:19.169Z,97469.00
2023-02-11T13:19:17.813Z,97469.00
2023-02-11T13:20:17.868Z,97469.00
2023-02-11T13:21:16.874Z,97471.00
2023-02-11T13:22:17.896Z,97473.00
2023-02-11T13:23:17.919Z,97475.00
2023-02-11T13:24:17.921Z,97473.00
2023-02-11T13:25:17.997Z,97473.00
2023-02-11T13:26:17.997Z,97471.00
2023-02-11T13:27:17.994Z,97471.00
2023-02-11T13:28:18.094Z,97467.00
2023-02-11T13:29:18.066Z,97467.00
2023-02-11T13:30:18.104Z,97465.00
2023-02-11T13:31:18.278Z,97463.00
2023-02-11T13:32:18.123Z,97463.00
2023-02-11T13:33:17.166Z,97467.00
2023-02-11T13:34:18.188Z,97463.00
2023-02-11T13:35:17.219Z,97461.00
2023-02-11T13:36:18.286Z,97461.00
2023-02-11T13:37:18.368Z,97460.00
2023-02-11T13:38:18.306Z,97460.00
2023-02-11T13:39:18.333Z,97458.00
2023-02-11T13:40:17.356Z,97456.00
2023-02-11T13:41:17.375Z,97458.00
2023-02-11T13:42:18.417Z,97456.00
2023-02-11T13:43:18.471Z,97456.00
2023-02-11T13:44:18.463Z,97456.00
2023-02-11T13:45:18.509Z,97454.00
2023-02-11T13:46:18.639Z,97452.00
2023-02-11T13:47:17.568Z,97452.00
2023-02-11T13:48:18.707Z,97450.00
2023-02-11T13:49:18.676Z,97444.00
2023-02-11T13:50:18.677Z,97442.00
2023-02-11T13:51:18.712Z,97442.00
2023-02-11T13:52:18.782Z,97442.00
2023-02-11T13:53:18.795Z,97446.00
2023-02-11T13:54:18.821Z,97446.00
2023-02-11T13:55:18.848Z,97452.00
2023-02-11T13:56:18.865Z,97452.00
2023-02-11T13:57:17.898Z,97454.00
2023-02-11T13:58:18.932Z,97458.00
2023-02-11T13:59:18.940Z,97454.00
2023-02-11T14:00:18.999Z,97456.00
2023-02-11T14:01:19.035Z,97456.00
2023-02-11T14:02:19.159Z,97454.00
2023-02-11T14:03:19.062Z,97450.00
2023-02-11T14:04:19.105Z,97448.00
2023-02-11T14:05:19.106Z,97446.00
2023-02-11T14:06:19.154Z,97448.00
2023-02-11T14:07:19.196Z,97448.00
2023-02-11T14:08:18.203Z,97450.00
2023-02-11T14:09:18.228Z,97448.00
2023-02-11T14:10:19.269Z,97446.00
2023-02-11T14:11:18.281Z,97444.00
2023-02-11T14:12:19.324Z,97442.00
2023-02-11T14:13:19.336Z,97440.00
2023-02-11T14:14:19.385Z,97436.00
2023-02-11T14:15:19.395Z,97434.00
2023-02-11T14:16:31.654Z,97434.00
2023-02-11T14:17:19.451Z,97432.00
2023-02-11T14:18:19.425Z,97428.00
2023-02-11T14:19:19.401Z,97424.00
2023-02-11T14:20:18.399Z,97416.00
2023-02-11T14:21:19.377Z,97416.00
2023-02-11T14:22:19.417Z,97413.00
2023-02-11T14:23:19.374Z,97414.00
2023-02-11T14:24:18.351Z,97413.00
2023-02-11T14:25:19.345Z,97413.00
2023-02-11T14:26:19.981Z,97414.00
2023-02-11T14:27:18.344Z,97418.00
2023-02-11T14:28:19.388Z,97418.00
2023-02-11T14:29:19.312Z,97420.00
2023-02-11T14:30:19.302Z,97422.00
2023-02-11T14:31:19.386Z,97420.00
2023-02-11T14:32:19.296Z,97420.00
2023-02-11T14:33:18.327Z,97426.00
2023-02-11T14:34:18.369Z,97424.00
2023-02-11T14:35:19.388Z,97424.00
2023-02-11T14:36:18.397Z,97426.00
2023-02-11T14:37:19.437Z,97428.00
2023-02-11T14:38:19.484Z,97430.00
2023-02-11T14:39:19.518Z,97432.00
2023-02-11T14:40:19.529Z,97426.00
2023-02-11T14:41:19.555Z,97424.00
2023-02-11T14:42:19.600Z,97420.00
2023-02-11T14:43:18.664Z,97420.00
2023-02-11T14:44:19.655Z,97420.00
2023-02-11T14:45:19.687Z,97420.00
2023-02-11T14:46:19.880Z,97411.00
2023-02-11T14:47:19.803Z,97411.00
2023-02-11T14:48:18.802Z,97411.00
2023-02-11T14:49:18.836Z,97413.00
2023-02-11T14:50:19.886Z,97416.00
2023-02-11T14:51:19.916Z,97420.00
2023-02-11T14:52:19.937Z,97422.00
2023-02-11T14:53:18.958Z,97424.00
2023-02-11T14:54:19.993Z,97422.00
2023-02-11T14:55:19.042Z,97428.00
2023-02-11T14:56:20.059Z,97424.00
2023-02-11T14:57:19.104Z,97424.00
2023-02-11T14:58:19.165Z,97424.00
2023-02-11T14:59:20.208Z,97422.00
2023-02-11T15:00:20.347Z,97422.00
2023-02-11T15:01:20.266Z,97422.00
2023-02-11T15:02:20.344Z,97422.00
2023-02-11T15:03:19.301Z,97422.00
2023-02-11T15:04:20.328Z,97424.00
2023-02-11T15:05:20.354Z,97426.00
2023-02-11T15:06:20.410Z,97428.00
2023-02-11T15:07:20.435Z,97430.00
2023-02-11T15:08:19.498Z,97432.00
2023-02-11T15:09:20.480Z,97434.00
2023-02-11T15:10:19.546Z,97434.00
2023-02-11T15:11:20.562Z,97434.00
2023-02-11T15:12:20.572Z,97438.00
2023-02-11T15:13:20.634Z,97438.00
2023-02-11T15:14:20.691Z,97438.00
2023-02-11T15:15:19.657Z,97440.00
2023-02-11T15:16:19.858Z,97440.00
2023-02-11T15:17:20.738Z,97442.00
2023-02-11T15:18:19.807Z,97440.00
2023-02-11T15:19:20.852Z,97438.00
2023-02-11T15:20:20.841Z,97442.00
2023-02-11T15:21:20.884Z,97442.00
2023-02-11T15:22:20.933Z,97444.00
2023-02-11T15:23:20.937Z,97442.00
2023-02-11T15:24:20.985Z,97440.00
2023-02-11T15:25:19.999Z,97442.00
2023-02-11T15:26:20.049Z,97440.00
2023-02-11T15:27:21.087Z,97440.00
2023-02-11T15:28:21.239Z,97442.00
2023-02-11T15:29:21.227Z,97440.00
2023-02-11T15:30:21.189Z,97440.00
2023-02-11T15:31:21.392Z,97442.00
2023-02-11T15:32:20.366Z,97438.00
2023-02-11T15:33:21.308Z,97440.00
2023-02-11T15:34:20.349Z,97442.00
2023-02-11T15:35:21.375Z,97444.00
2023-02-11T15:36:21.430Z,97446.00
2023-02-11T15:37:20.489Z,97446.00
2023-02-11T15:38:21.505Z,97452.00
2023-02-11T15:39:20.550Z,97450.00
2023-02-11T15:40:21.546Z,97450.00
2023-02-11T15:41:21.598Z,97452.00
2023-02-11T15:42:20.623Z,97456.00
2023-02-11T15:43:20.663Z,97456.00
2023-02-11T15:44:21.720Z,97456.00
2023-02-11T15:45:21.719Z,97452.00
2023-02-11T15:46:21.822Z,97452.00
2023-02-11T15:47:20.803Z,97448.00
2023-02-11T15:48:21.847Z,97452.00
2023-02-11T15:49:21.881Z,97452.00
2023-02-11T15:50:21.894Z,97452.00
2023-02-11T15:51:20.940Z,97452.00
2023-02-11T15:52:21.985Z,97456.00
2023-02-11T15:53:22.025Z,97458.00
2023-02-11T15:54:21.108Z,97458.00
2023-02-11T15:55:21.116Z,97456.00
2023-02-11T15:56:22.172Z,97456.00
2023-02-11T15:57:22.221Z,97450.00
2023-02-11T15:58:22.240Z,97452.00
2023-02-11T15:59:22.270Z,97454.00
2023-02-11T16:00:22.316Z,97456.00
2023-02-11T16:01:21.382Z,97458.00
2023-02-11T16:02:22.387Z,97458.00
2023-02-11T16:03:22.444Z,97460.00
2023-02-11T16:04:22.522Z,97461.00
2023-02-11T16:05:22.494Z,97458.00
2023-02-11T16:06:22.543Z,97458.00
2023-02-11T16:07:22.619Z,97454.00
2023-02-11T16:08:22.600Z,97456.00
2023-02-11T16:09:22.640Z,97454.00
2023-02-11T16:10:21.716Z,97458.00
2023-02-11T16:11:22.720Z,97456.00
2023-02-11T16:12:22.747Z,97456.00
2023-02-11T16:13:22.790Z,97456.00
2023-02-11T16:14:22.840Z,97460.00
2023-02-11T16:15:21.856Z,97460.00
2023-02-11T16:16:23.005Z,97461.00
2023-02-11T16:17:22.928Z,97463.00
2023-02-11T16:18:28.538Z,97465.00
2023-02-11T16:19:25.476Z,97469.00
2023-02-11T16:20:21.952Z,97473.00
2023-02-11T16:21:22.926Z,97475.00
2023-02-11T16:22:22.968Z,97479.00
2023-02-11T16:23:23.021Z,97481.00
2023-02-11T16:24:21.912Z,97481.00
2023-02-11T16:25:22.940Z,97479.00
2023-02-11T16:26:22.938Z,97477.00
2023-02-11T16:27:22.897Z,97475.00
2023-02-11T16:28:22.966Z,97475.00
2023-02-11T16:29:22.880Z,97475.00
2023-02-11T16:30:22.901Z,97475.00
2023-02-11T16:31:21.972Z,97479.00
2023-02-11T16:32:22.862Z,97479.00
2023-02-11T16:33:22.873Z,97479.00
2023-02-11T16:34:22.879Z,97479.00
2023-02-11T16:35:22.838Z,97475.00
2023-02-11T16:36:25.176Z,97475.00
2023-02-11T16:37:22.844Z,97475.00